sensor_id;sensor_type;location;lat;lon;timestamp;P1;durP1;ratioP1;P2;durP2;ratioP2
3587;SDS011;1808;53.596;9.972;2022-07-25T00:01:22;13.55;;;9.45;;
3587;SDS011;1808;53.596;9.972;2022-07-25T00:03:49;15.18;;;10.30;;
3587;SDS011;1808;53.596;9.972;2022-07-25T00:06:15;15.07;;;9.93;;
3587;SDS011;1808;53.596;9.972;2022-07-25T00:08:42;11.43;;;9.43;;
3587;SDS011;1808;53.596;9.972;2022-07-25T00:11:08;11.23;;;9.95;;
3587;SDS011;1808;53.596;9.972;2022-07-25T00:13:35;12.88;;;10.05;;
3587;SDS011;1808;53.596;9.972;2022-07-25T00:16:02;15.63;;;10.38;;
3587;SDS011;1808;53.596;9.972;2022-07-25T00:18:28;16.48;;;9.98;;
3587;SDS011;1808;53.596;9.972;2022-07-25T00:20:55;17.05;;;9.77;;
3587;SDS011;1808;53.596;9.972;2022-07-25T00:23:21;11.57;;;9.40;;
3587;SDS011;1808;53.596;9.972;2022-07-25T00:25:47;11.40;;;9.43;;
3587;SDS011;1808;53.596;9.972;2022-07-25T00:28:14;11.70;;;9.02;;
3587;SDS011;1808;53.596;9.972;2022-07-25T00:30:41;9.70;;;8.60;;
3587;SDS011;1808;53.596;9.972;2022-07-25T00:33:08;13.15;;;9.73;;
3587;SDS011;1808;53.596;9.972;2022-07-25T00:35:34;15.77;;;9.15;;
3587;SDS011;1808;53.596;9.972;2022-07-25T00:38:00;12.25;;;9.88;;
3587;SDS011;1808;53.596;9.972;2022-07-25T00:40:27;11.77;;;9.10;;
3587;SDS011;1808;53.596;9.972;2022-07-25T00:42:53;12.85;;;9.55;;
3587;SDS011;1808;53.596;9.972;2022-07-25T00:45:19;11.05;;;9.40;;
3587;SDS011;1808;53.596;9.972;2022-07-25T00:47:47;12.10;;;9.25;;
3587;SDS011;1808;53.596;9.972;2022-07-25T00:50:13;10.77;;;8.60;;
3587;SDS011;1808;53.596;9.972;2022-07-25T00:52:39;12.23;;;8.50;;
3587;SDS011;1808;53.596;9.972;2022-07-25T00:55:06;9.90;;;8.70;;
3587;SDS011;1808;53.596;9.972;2022-07-25T00:57:33;11.45;;;8.73;;
3587;SDS011;1808;53.596;9.972;2022-07-25T00:59:59;13.00;;;8.65;;
3587;SDS011;1808;53.596;9.972;2022-07-25T01:02:26;10.38;;;9.02;;
3587;SDS011;1808;53.596;9.972;2022-07-25T01:04:53;11.23;;;8.55;;
3587;SDS011;1808;53.596;9.972;2022-07-25T01:07:21;11.73;;;9.45;;
3587;SDS011;1808;53.596;9.972;2022-07-25T01:09:47;12.05;;;8.90;;
3587;SDS011;1808;53.596;9.972;2022-07-25T01:12:13;11.82;;;8.98;;
3587;SDS011;1808;53.596;9.972;2022-07-25T01:14:40;11.75;;;8.90;;
3587;SDS011;1808;53.596;9.972;2022-07-25T01:17:06;11.35;;;8.55;;
3587;SDS011;1808;53.596;9.972;2022-07-25T01:19:32;13.40;;;8.48;;
3587;SDS011;1808;53.596;9.972;2022-07-25T01:22:00;10.57;;;8.23;;
3587;SDS011;1808;53.596;9.972;2022-07-25T01:24:27;11.50;;;8.18;;
3587;SDS011;1808;53.596;9.972;2022-07-25T01:26:53;8.80;;;7.90;;
3587;SDS011;1808;53.596;9.972;2022-07-25T01:29:20;10.63;;;8.35;;
3587;SDS011;1808;53.596;9.972;2022-07-25T01:31:46;9.75;;;8.70;;
3587;SDS011;1808;53.596;9.972;2022-07-25T01:34:12;10.77;;;8.30;;
3587;SDS011;1808;53.596;9.972;2022-07-25T01:36:39;13.35;;;8.48;;
3587;SDS011;1808;53.596;9.972;2022-07-25T01:39:06;13.18;;;8.27;;
3587;SDS011;1808;53.596;9.972;2022-07-25T01:41:33;12.75;;;8.52;;
3587;SDS011;1808;53.596;9.972;2022-07-25T01:43:59;9.48;;;8.30;;
3587;SDS011;1808;53.596;9.972;2022-07-25T01:46:25;11.68;;;8.45;;
3587;SDS011;1808;53.596;9.972;2022-07-25T01:48:52;9.32;;;8.32;;
3587;SDS011;1808;53.596;9.972;2022-07-25T01:51:18;9.35;;;8.30;;
3587;SDS011;1808;53.596;9.972;2022-07-25T01:53:44;12.20;;;8.07;;
3587;SDS011;1808;53.596;9.972;2022-07-25T01:56:12;11.27;;;8.02;;
3587;SDS011;1808;53.596;9.972;2022-07-25T01:58:38;8.48;;;7.68;;
3587;SDS011;1808;53.596;9.972;2022-07-25T02:01:05;9.00;;;8.10;;
3587;SDS011;1808;53.596;9.972;2022-07-25T02:03:31;11.05;;;8.63;;
3587;SDS011;1808;53.596;9.972;2022-07-25T02:05:58;12.18;;;8.73;;
3587;SDS011;1808;53.596;9.972;2022-07-25T02:08:26;10.05;;;8.65;;
3587;SDS011;1808;53.596;9.972;2022-07-25T02:10:52;12.88;;;9.57;;
3587;SDS011;1808;53.596;9.972;2022-07-25T02:13:20;10.10;;;7.95;;
3587;SDS011;1808;53.596;9.972;2022-07-25T02:15:46;9.40;;;8.50;;
3587;SDS011;1808;53.596;9.972;2022-07-25T02:18:13;9.68;;;8.68;;
3587;SDS011;1808;53.596;9.972;2022-07-25T02:20:39;10.20;;;8.63;;
3587;SDS011;1808;53.596;9.972;2022-07-25T02:23:06;14.63;;;8.60;;
3587;SDS011;1808;53.596;9.972;2022-07-25T02:25:32;9.90;;;8.68;;
3587;SDS011;1808;53.596;9.972;2022-07-25T02:28:00;11.27;;;8.82;;
3587;SDS011;1808;53.596;9.972;2022-07-25T02:30:27;10.65;;;8.10;;
3587;SDS011;1808;53.596;9.972;2022-07-25T02:32:54;13.98;;;8.82;;
3587;SDS011;1808;53.596;9.972;2022-07-25T02:35:20;10.00;;;8.57;;
3587;SDS011;1808;53.596;9.972;2022-07-25T02:37:46;13.68;;;9.27;;
3587;SDS011;1808;53.596;9.972;2022-07-25T02:40:13;14.82;;;8.95;;
3587;SDS011;1808;53.596;9.972;2022-07-25T02:42:39;10.50;;;8.35;;
3587;SDS011;1808;53.596;9.972;2022-07-25T02:45:06;9.88;;;8.20;;
3587;SDS011;1808;53.596;9.972;2022-07-25T02:47:35;9.40;;;8.40;;
3587;SDS011;1808;53.596;9.972;2022-07-25T02:50:02;9.88;;;8.40;;
3587;SDS011;1808;53.596;9.972;2022-07-25T02:52:28;9.75;;;7.93;;
3587;SDS011;1808;53.596;9.972;2022-07-25T02:54:55;12.43;;;8.00;;
3587;SDS011;1808;53.596;9.972;2022-07-25T02:57:21;12.07;;;8.30;;
3587;SDS011;1808;53.596;9.972;2022-07-25T02:59:47;9.43;;;8.20;;
3587;SDS011;1808;53.596;9.972;2022-07-25T03:02:14;9.23;;;7.97;;
3587;SDS011;1808;53.596;9.972;2022-07-25T03:04:41;9.45;;;7.78;;
3587;SDS011;1808;53.596;9.972;2022-07-25T03:07:07;10.70;;;7.60;;
3587;SDS011;1808;53.596;9.972;2022-07-25T03:09:34;8.15;;;7.30;;
3587;SDS011;1808;53.596;9.972;2022-07-25T03:12:00;9.57;;;7.82;;
3587;SDS011;1808;53.596;9.972;2022-07-25T03:14:26;7.65;;;6.68;;
3587;SDS011;1808;53.596;9.972;2022-07-25T03:16:53;8.93;;;7.20;;
3587;SDS011;1808;53.596;9.972;2022-07-25T03:19:19;10.38;;;7.20;;
3587;SDS011;1808;53.596;9.972;2022-07-25T03:21:47;7.63;;;6.57;;
3587;SDS011;1808;53.596;9.972;2022-07-25T03:24:14;7.65;;;6.72;;
3587;SDS011;1808;53.596;9.972;2022-07-25T03:26:40;10.57;;;7.20;;
3587;SDS011;1808;53.596;9.972;2022-07-25T03:29:06;10.73;;;6.63;;
3587;SDS011;1808;53.596;9.972;2022-07-25T03:31:33;8.38;;;6.55;;
3587;SDS011;1808;53.596;9.972;2022-07-25T03:33:59;7.75;;;6.57;;
3587;SDS011;1808;53.596;9.972;2022-07-25T03:36:25;8.73;;;6.22;;
3587;SDS011;1808;53.596;9.972;2022-07-25T03:38:53;8.77;;;6.88;;
3587;SDS011;1808;53.596;9.972;2022-07-25T03:41:20;8.65;;;6.22;;
3587;SDS011;1808;53.596;9.972;2022-07-25T03:43:47;9.10;;;5.82;;
3587;SDS011;1808;53.596;9.972;2022-07-25T03:46:13;6.85;;;6.07;;
3587;SDS011;1808;53.596;9.972;2022-07-25T03:48:39;9.68;;;6.28;;
3587;SDS011;1808;53.596;9.972;2022-07-25T03:51:06;8.15;;;6.18;;
3587;SDS011;1808;53.596;9.972;2022-07-25T03:53:32;10.48;;;5.82;;
3587;SDS011;1808;53.596;9.972;2022-07-25T03:56:20;7.22;;;5.68;;
3587;SDS011;1808;53.596;9.972;2022-07-25T03:58:46;9.02;;;5.57;;
3587;SDS011;1808;53.596;9.972;2022-07-25T04:01:12;8.85;;;5.60;;
3587;SDS011;1808;53.596;9.972;2022-07-25T04:03:39;8.20;;;5.47;;
3587;SDS011;1808;53.596;9.972;2022-07-25T04:06:05;7.90;;;5.38;;
3587;SDS011;1808;53.596;9.972;2022-07-25T04:08:32;8.68;;;5.90;;
3587;SDS011;1808;53.596;9.972;2022-07-25T04:10:58;12.45;;;5.20;;
3587;SDS011;1808;53.596;9.972;2022-07-25T04:13:26;10.15;;;5.47;;
3587;SDS011;1808;53.596;9.972;2022-07-25T04:15:52;7.28;;;5.53;;
3587;SDS011;1808;53.596;9.972;2022-07-25T04:18:18;9.73;;;5.30;;
3587;SDS011;1808;53.596;9.972;2022-07-25T04:20:45;8.80;;;6.65;;
3587;SDS011;1808;53.596;9.972;2022-07-25T04:23:11;9.85;;;5.28;;
3587;SDS011;1808;53.596;9.972;2022-07-25T04:25:37;8.52;;;5.50;;
3587;SDS011;1808;53.596;9.972;2022-07-25T04:28:04;7.70;;;5.25;;
3587;SDS011;1808;53.596;9.972;2022-07-25T04:30:31;9.52;;;5.15;;
3587;SDS011;1808;53.596;9.972;2022-07-25T04:32:58;8.93;;;5.20;;
3587;SDS011;1808;53.596;9.972;2022-07-25T04:35:24;7.65;;;5.10;;
3587;SDS011;1808;53.596;9.972;2022-07-25T04:37:50;11.75;;;5.18;;
3587;SDS011;1808;53.596;9.972;2022-07-25T04:40:17;8.13;;;4.95;;
3587;SDS011;1808;53.596;9.972;2022-07-25T04:42:43;7.15;;;5.00;;
3587;SDS011;1808;53.596;9.972;2022-07-25T04:45:10;7.28;;;5.10;;
3587;SDS011;1808;53.596;9.972;2022-07-25T04:47:37;10.07;;;5.03;;
3587;SDS011;1808;53.596;9.972;2022-07-25T04:50:04;8.98;;;5.20;;
3587;SDS011;1808;53.596;9.972;2022-07-25T04:52:32;7.40;;;4.88;;
3587;SDS011;1808;53.596;9.972;2022-07-25T04:54:58;6.85;;;4.85;;
3587;SDS011;1808;53.596;9.972;2022-07-25T04:57:24;6.95;;;4.93;;
3587;SDS011;1808;53.596;9.972;2022-07-25T04:59:50;6.55;;;4.80;;
3587;SDS011;1808;53.596;9.972;2022-07-25T05:02:17;8.40;;;4.90;;
3587;SDS011;1808;53.596;9.972;2022-07-25T05:04:44;7.97;;;4.82;;
3587;SDS011;1808;53.596;9.972;2022-07-25T05:07:11;10.63;;;5.45;;
3587;SDS011;1808;53.596;9.972;2022-07-25T05:09:37;5.97;;;4.65;;
3587;SDS011;1808;53.596;9.972;2022-07-25T05:12:04;10.40;;;4.68;;
3587;SDS011;1808;53.596;9.972;2022-07-25T05:14:30;7.57;;;4.82;;
3587;SDS011;1808;53.596;9.972;2022-07-25T05:16:56;9.75;;;4.95;;
3587;SDS011;1808;53.596;9.972;2022-07-25T05:19:23;11.57;;;4.53;;
3587;SDS011;1808;53.596;9.972;2022-07-25T05:21:51;9.65;;;4.63;;
3587;SDS011;1808;53.596;9.972;2022-07-25T05:24:17;7.82;;;4.93;;
3587;SDS011;1808;53.596;9.972;2022-07-25T05:26:44;6.93;;;4.35;;
3587;SDS011;1808;53.596;9.972;2022-07-25T05:29:10;10.07;;;4.65;;
3587;SDS011;1808;53.596;9.972;2022-07-25T05:31:36;6.10;;;4.60;;
3587;SDS011;1808;53.596;9.972;2022-07-25T05:34:03;8.32;;;5.20;;
3587;SDS011;1808;53.596;9.972;2022-07-25T05:36:29;8.95;;;4.90;;
3587;SDS011;1808;53.596;9.972;2022-07-25T05:38:56;8.40;;;5.05;;
3587;SDS011;1808;53.596;9.972;2022-07-25T05:41:23;8.82;;;4.93;;
3587;SDS011;1808;53.596;9.972;2022-07-25T05:43:50;7.50;;;5.03;;
3587;SDS011;1808;53.596;9.972;2022-07-25T05:46:16;7.25;;;4.85;;
3587;SDS011;1808;53.596;9.972;2022-07-25T05:48:43;11.30;;;4.88;;
3587;SDS011;1808;53.596;9.972;2022-07-25T05:51:09;7.50;;;4.57;;
3587;SDS011;1808;53.596;9.972;2022-07-25T05:53:36;6.35;;;4.63;;
3587;SDS011;1808;53.596;9.972;2022-07-25T05:56:04;8.80;;;4.55;;
3587;SDS011;1808;53.596;9.972;2022-07-25T05:58:31;13.23;;;4.45;;
3587;SDS011;1808;53.596;9.972;2022-07-25T06:00:57;7.78;;;4.82;;
3587;SDS011;1808;53.596;9.972;2022-07-25T06:03:24;10.88;;;5.00;;
3587;SDS011;1808;53.596;9.972;2022-07-25T06:05:50;10.70;;;4.88;;
3587;SDS011;1808;53.596;9.972;2022-07-25T06:08:16;6.68;;;4.63;;
3587;SDS011;1808;53.596;9.972;2022-07-25T06:10:43;7.72;;;4.80;;
3587;SDS011;1808;53.596;9.972;2022-07-25T06:13:10;7.28;;;5.00;;
3587;SDS011;1808;53.596;9.972;2022-07-25T06:15:37;7.57;;;4.80;;
3587;SDS011;1808;53.596;9.972;2022-07-25T06:18:03;8.95;;;4.70;;
3587;SDS011;1808;53.596;9.972;2022-07-25T06:20:30;10.93;;;5.07;;
3587;SDS011;1808;53.596;9.972;2022-07-25T06:22:56;10.70;;;5.20;;
3587;SDS011;1808;53.596;9.972;2022-07-25T06:25:22;12.20;;;4.93;;
3587;SDS011;1808;53.596;9.972;2022-07-25T06:27:49;7.60;;;4.95;;
3587;SDS011;1808;53.596;9.972;2022-07-25T06:30:16;7.72;;;4.70;;
3587;SDS011;1808;53.596;9.972;2022-07-25T06:32:43;10.80;;;5.28;;
3587;SDS011;1808;53.596;9.972;2022-07-25T06:35:09;7.40;;;4.85;;
3587;SDS011;1808;53.596;9.972;2022-07-25T06:37:35;12.85;;;5.47;;
3587;SDS011;1808;53.596;9.972;2022-07-25T06:40:03;8.52;;;5.03;;
3587;SDS011;1808;53.596;9.972;2022-07-25T06:42:30;8.93;;;5.40;;
3587;SDS011;1808;53.596;9.972;2022-07-25T06:44:57;11.25;;;5.40;;
3587;SDS011;1808;53.596;9.972;2022-07-25T06:47:25;9.27;;;4.85;;
3587;SDS011;1808;53.596;9.972;2022-07-25T06:49:51;13.05;;;5.07;;
3587;SDS011;1808;53.596;9.972;2022-07-25T06:52:17;9.85;;;5.03;;
3587;SDS011;1808;53.596;9.972;2022-07-25T06:54:44;10.70;;;5.07;;
3587;SDS011;1808;53.596;9.972;2022-07-25T06:57:10;15.13;;;5.35;;
3587;SDS011;1808;53.596;9.972;2022-07-25T06:59:36;9.27;;;5.55;;
3587;SDS011;1808;53.596;9.972;2022-07-25T07:02:02;9.48;;;4.38;;
3587;SDS011;1808;53.596;9.972;2022-07-25T07:04:30;11.30;;;5.10;;
3587;SDS011;1808;53.596;9.972;2022-07-25T07:06:57;9.60;;;4.80;;
3587;SDS011;1808;53.596;9.972;2022-07-25T07:09:23;7.68;;;5.53;;
3587;SDS011;1808;53.596;9.972;2022-07-25T07:11:49;11.70;;;5.20;;
3587;SDS011;1808;53.596;9.972;2022-07-25T07:14:16;7.07;;;5.00;;
3587;SDS011;1808;53.596;9.972;2022-07-25T07:16:42;8.50;;;5.22;;
3587;SDS011;1808;53.596;9.972;2022-07-25T07:19:08;8.63;;;5.13;;
3587;SDS011;1808;53.596;9.972;2022-07-25T07:21:37;7.18;;;5.05;;
3587;SDS011;1808;53.596;9.972;2022-07-25T07:24:03;8.57;;;5.20;;
3587;SDS011;1808;53.596;9.972;2022-07-25T07:26:30;7.28;;;5.22;;
3587;SDS011;1808;53.596;9.972;2022-07-25T07:28:56;8.82;;;5.60;;
3587;SDS011;1808;53.596;9.972;2022-07-25T07:31:23;7.25;;;5.13;;
3587;SDS011;1808;53.596;9.972;2022-07-25T07:33:49;6.65;;;5.45;;
3587;SDS011;1808;53.596;9.972;2022-07-25T07:36:15;8.05;;;5.28;;
3587;SDS011;1808;53.596;9.972;2022-07-25T07:38:43;8.73;;;5.65;;
3587;SDS011;1808;53.596;9.972;2022-07-25T07:41:09;6.63;;;5.32;;
3587;SDS011;1808;53.596;9.972;2022-07-25T07:43:36;7.00;;;5.50;;
3587;SDS011;1808;53.596;9.972;2022-07-25T07:46:03;6.88;;;5.43;;
3587;SDS011;1808;53.596;9.972;2022-07-25T07:48:29;10.25;;;5.55;;
3587;SDS011;1808;53.596;9.972;2022-07-25T07:50:56;7.90;;;5.57;;
3587;SDS011;1808;53.596;9.972;2022-07-25T07:53:23;14.90;;;5.40;;
3587;SDS011;1808;53.596;9.972;2022-07-25T07:56:11;8.52;;;5.30;;
3587;SDS011;1808;53.596;9.972;2022-07-25T07:58:36;11.52;;;5.20;;
3587;SDS011;1808;53.596;9.972;2022-07-25T08:01:03;10.02;;;6.15;;
3587;SDS011;1808;53.596;9.972;2022-07-25T08:03:29;6.50;;;5.30;;
3587;SDS011;1808;53.596;9.972;2022-07-25T08:05:56;7.70;;;5.32;;
3587;SDS011;1808;53.596;9.972;2022-07-25T08:08:23;11.95;;;5.57;;
3587;SDS011;1808;53.596;9.972;2022-07-25T08:10:49;10.43;;;5.95;;
3587;SDS011;1808;53.596;9.972;2022-07-25T08:13:18;6.65;;;5.32;;
3587;SDS011;1808;53.596;9.972;2022-07-25T08:15:46;9.27;;;5.65;;
3587;SDS011;1808;53.596;9.972;2022-07-25T08:18:13;12.48;;;6.38;;
3587;SDS011;1808;53.596;9.972;2022-07-25T08:20:39;7.50;;;5.60;;
3587;SDS011;1808;53.596;9.972;2022-07-25T08:23:06;7.88;;;6.43;;
3587;SDS011;1808;53.596;9.972;2022-07-25T08:25:34;7.68;;;6.15;;
3587;SDS011;1808;53.596;9.972;2022-07-25T08:28:01;10.25;;;6.00;;
3587;SDS011;1808;53.596;9.972;2022-07-25T08:30:29;7.88;;;6.35;;
3587;SDS011;1808;53.596;9.972;2022-07-25T08:32:56;12.20;;;6.50;;
3587;SDS011;1808;53.596;9.972;2022-07-25T08:35:24;7.90;;;6.22;;
3587;SDS011;1808;53.596;9.972;2022-07-25T08:37:51;9.90;;;6.38;;
3587;SDS011;1808;53.596;9.972;2022-07-25T08:40:18;7.55;;;6.07;;
3587;SDS011;1808;53.596;9.972;2022-07-25T08:42:46;13.82;;;6.70;;
3587;SDS011;1808;53.596;9.972;2022-07-25T08:45:13;10.50;;;7.88;;
3587;SDS011;1808;53.596;9.972;2022-07-25T08:47:43;10.52;;;7.05;;
3587;SDS011;1808;53.596;9.972;2022-07-25T08:50:12;8.48;;;6.38;;
3587;SDS011;1808;53.596;9.972;2022-07-25T08:52:40;9.07;;;6.93;;
3587;SDS011;1808;53.596;9.972;2022-07-25T08:55:08;8.30;;;6.88;;
3587;SDS011;1808;53.596;9.972;2022-07-25T08:57:38;17.15;;;6.85;;
3587;SDS011;1808;53.596;9.972;2022-07-25T09:00:08;7.70;;;6.90;;
3587;SDS011;1808;53.596;9.972;2022-07-25T09:02:35;10.05;;;6.90;;
3587;SDS011;1808;53.596;9.972;2022-07-25T09:05:04;9.23;;;7.53;;
3587;SDS011;1808;53.596;9.972;2022-07-25T09:07:31;7.90;;;6.75;;
3587;SDS011;1808;53.596;9.972;2022-07-25T09:10:09;7.88;;;6.70;;
3587;SDS011;1808;53.596;9.972;2022-07-25T09:12:37;11.70;;;7.20;;
3587;SDS011;1808;53.596;9.972;2022-07-25T09:15:03;9.38;;;6.82;;
3587;SDS011;1808;53.596;9.972;2022-07-25T09:17:32;8.30;;;6.63;;
3587;SDS011;1808;53.596;9.972;2022-07-25T09:19:59;8.13;;;6.30;;
3587;SDS011;1808;53.596;9.972;2022-07-25T09:22:27;10.82;;;7.47;;
3587;SDS011;1808;53.596;9.972;2022-07-25T09:24:54;7.78;;;6.97;;
3587;SDS011;1808;53.596;9.972;2022-07-25T09:27:20;8.48;;;7.45;;
3587;SDS011;1808;53.596;9.972;2022-07-25T09:29:47;9.35;;;7.43;;
3587;SDS011;1808;53.596;9.972;2022-07-25T09:32:14;7.75;;;6.95;;
3587;SDS011;1808;53.596;9.972;2022-07-25T09:34:42;9.85;;;7.25;;
3587;SDS011;1808;53.596;9.972;2022-07-25T09:37:10;8.20;;;6.90;;
3587;SDS011;1808;53.596;9.972;2022-07-25T09:39:40;7.50;;;6.68;;
3587;SDS011;1808;53.596;9.972;2022-07-25T09:42:17;10.52;;;6.97;;
3587;SDS011;1808;53.596;9.972;2022-07-25T09:44:55;10.93;;;6.93;;
3587;SDS011;1808;53.596;9.972;2022-07-25T09:47:26;8.93;;;7.03;;
3587;SDS011;1808;53.596;9.972;2022-07-25T09:49:53;9.23;;;6.70;;
3587;SDS011;1808;53.596;9.972;2022-07-25T09:52:20;7.60;;;6.88;;
3587;SDS011;1808;53.596;9.972;2022-07-25T09:54:47;9.73;;;7.05;;
3587;SDS011;1808;53.596;9.972;2022-07-25T09:57:14;8.75;;;6.68;;
3587;SDS011;1808;53.596;9.972;2022-07-25T09:59:40;8.77;;;6.82;;
3587;SDS011;1808;53.596;9.972;2022-07-25T10:02:09;8.85;;;6.97;;
3587;SDS011;1808;53.596;9.972;2022-07-25T10:04:41;11.07;;;6.85;;
3587;SDS011;1808;53.596;9.972;2022-07-25T10:07:10;12.02;;;6.68;;
3587;SDS011;1808;53.596;9.972;2022-07-25T10:09:40;10.35;;;6.95;;
3587;SDS011;1808;53.596;9.972;2022-07-25T10:12:09;7.28;;;6.43;;
3587;SDS011;1808;53.596;9.972;2022-07-25T10:14:36;8.65;;;7.20;;
3587;SDS011;1808;53.596;9.972;2022-07-25T10:17:04;9.98;;;7.00;;
3587;SDS011;1808;53.596;9.972;2022-07-25T10:19:34;12.93;;;7.50;;
3587;SDS011;1808;53.596;9.972;2022-07-25T10:22:07;7.97;;;6.80;;
3587;SDS011;1808;53.596;9.972;2022-07-25T10:24:34;11.82;;;7.32;;
3587;SDS011;1808;53.596;9.972;2022-07-25T10:27:06;8.93;;;6.90;;
3587;SDS011;1808;53.596;9.972;2022-07-25T10:29:34;9.90;;;7.25;;
3587;SDS011;1808;53.596;9.972;2022-07-25T10:32:04;12.57;;;6.80;;
3587;SDS011;1808;53.596;9.972;2022-07-25T10:34:31;7.72;;;6.90;;
3587;SDS011;1808;53.596;9.972;2022-07-25T10:37:07;8.50;;;7.35;;
3587;SDS011;1808;53.596;9.972;2022-07-25T10:39:36;8.02;;;7.22;;
3587;SDS011;1808;53.596;9.972;2022-07-25T10:42:03;8.13;;;6.78;;
3587;SDS011;1808;53.596;9.972;2022-07-25T10:44:39;9.32;;;7.80;;
3587;SDS011;1808;53.596;9.972;2022-07-25T10:47:08;9.52;;;7.47;;
3587;SDS011;1808;53.596;9.972;2022-07-25T10:49:35;7.95;;;7.07;;
3587;SDS011;1808;53.596;9.972;2022-07-25T10:52:03;13.98;;;7.28;;
3587;SDS011;1808;53.596;9.972;2022-07-25T10:54:33;9.20;;;7.47;;
3587;SDS011;1808;53.596;9.972;2022-07-25T10:57:01;8.35;;;7.07;;
3587;SDS011;1808;53.596;9.972;2022-07-25T10:59:30;8.10;;;7.30;;
3587;SDS011;1808;53.596;9.972;2022-07-25T11:01:59;8.43;;;7.57;;
3587;SDS011;1808;53.596;9.972;2022-07-25T11:04:26;9.25;;;7.78;;
3587;SDS011;1808;53.596;9.972;2022-07-25T11:06:53;11.25;;;7.63;;
3587;SDS011;1808;53.596;9.972;2022-07-25T11:09:20;9.88;;;7.50;;
3587;SDS011;1808;53.596;9.972;2022-07-25T11:11:49;8.55;;;7.45;;
3587;SDS011;1808;53.596;9.972;2022-07-25T11:14:17;12.02;;;7.50;;
3587;SDS011;1808;53.596;9.972;2022-07-25T11:16:44;13.27;;;7.93;;
3587;SDS011;1808;53.596;9.972;2022-07-25T11:19:18;11.18;;;7.30;;
3587;SDS011;1808;53.596;9.972;2022-07-25T11:21:46;10.15;;;7.55;;
3587;SDS011;1808;53.596;9.972;2022-07-25T11:24:13;8.85;;;7.90;;
3587;SDS011;1808;53.596;9.972;2022-07-25T11:26:46;10.43;;;7.25;;
3587;SDS011;1808;53.596;9.972;2022-07-25T11:29:17;9.77;;;7.35;;
3587;SDS011;1808;53.596;9.972;2022-07-25T11:31:51;9.70;;;7.28;;
3587;SDS011;1808;53.596;9.972;2022-07-25T11:34:23;8.80;;;7.63;;
3587;SDS011;1808;53.596;9.972;2022-07-25T11:36:53;12.97;;;7.73;;
3587;SDS011;1808;53.596;9.972;2022-07-25T11:39:22;8.57;;;7.07;;
3587;SDS011;1808;53.596;9.972;2022-07-25T11:41:57;10.00;;;7.50;;
3587;SDS011;1808;53.596;9.972;2022-07-25T11:44:28;8.95;;;7.40;;
3587;SDS011;1808;53.596;9.972;2022-07-25T11:46:56;9.48;;;7.13;;
3587;SDS011;1808;53.596;9.972;2022-07-25T11:49:24;9.45;;;7.60;;
3587;SDS011;1808;53.596;9.972;2022-07-25T11:51:50;7.88;;;7.07;;
3587;SDS011;1808;53.596;9.972;2022-07-25T11:54:17;10.20;;;7.43;;
3587;SDS011;1808;53.596;9.972;2022-07-25T11:56:44;10.07;;;7.30;;
3587;SDS011;1808;53.596;9.972;2022-07-25T11:59:11;10.63;;;7.75;;
3587;SDS011;1808;53.596;9.972;2022-07-25T12:01:38;9.55;;;7.45;;
3587;SDS011;1808;53.596;9.972;2022-07-25T12:04:09;11.57;;;7.60;;
3587;SDS011;1808;53.596;9.972;2022-07-25T12:06:40;8.48;;;7.25;;
3587;SDS011;1808;53.596;9.972;2022-07-25T12:09:10;13.82;;;7.10;;
3587;SDS011;1808;53.596;9.972;2022-07-25T12:11:38;9.63;;;6.80;;
3587;SDS011;1808;53.596;9.972;2022-07-25T12:14:04;10.70;;;7.13;;
3587;SDS011;1808;53.596;9.972;2022-07-25T12:16:33;11.63;;;6.90;;
3587;SDS011;1808;53.596;9.972;2022-07-25T12:19:00;10.30;;;6.75;;
3587;SDS011;1808;53.596;9.972;2022-07-25T12:21:27;7.63;;;6.35;;
3587;SDS011;1808;53.596;9.972;2022-07-25T12:23:55;8.45;;;7.10;;
3587;SDS011;1808;53.596;9.972;2022-07-25T12:26:21;9.02;;;6.07;;
3587;SDS011;1808;53.596;9.972;2022-07-25T12:28:48;11.63;;;7.50;;
3587;SDS011;1808;53.596;9.972;2022-07-25T12:31:15;11.93;;;7.70;;
3587;SDS011;1808;53.596;9.972;2022-07-25T12:33:41;10.88;;;7.10;;
3587;SDS011;1808;53.596;9.972;2022-07-25T12:36:10;11.63;;;7.55;;
3587;SDS011;1808;53.596;9.972;2022-07-25T12:38:37;7.97;;;7.18;;
3587;SDS011;1808;53.596;9.972;2022-07-25T12:41:05;10.05;;;7.45;;
3587;SDS011;1808;53.596;9.972;2022-07-25T12:43:31;9.60;;;6.57;;
3587;SDS011;1808;53.596;9.972;2022-07-25T12:45:58;9.07;;;7.40;;
3587;SDS011;1808;53.596;9.972;2022-07-25T12:48:24;8.68;;;7.55;;
3587;SDS011;1808;53.596;9.972;2022-07-25T12:50:51;8.20;;;6.65;;
3587;SDS011;1808;53.596;9.972;2022-07-25T12:53:17;11.38;;;7.15;;
3587;SDS011;1808;53.596;9.972;2022-07-25T12:55:44;9.13;;;7.90;;
3587;SDS011;1808;53.596;9.972;2022-07-25T12:58:14;11.50;;;7.53;;
3587;SDS011;1808;53.596;9.972;2022-07-25T13:00:42;10.02;;;7.07;;
3587;SDS011;1808;53.596;9.972;2022-07-25T13:03:08;9.43;;;7.10;;
3587;SDS011;1808;53.596;9.972;2022-07-25T13:05:35;10.77;;;7.32;;
3587;SDS011;1808;53.596;9.972;2022-07-25T13:08:02;10.43;;;7.38;;
3587;SDS011;1808;53.596;9.972;2022-07-25T13:10:29;8.18;;;6.82;;
3587;SDS011;1808;53.596;9.972;2022-07-25T13:12:56;9.10;;;6.90;;
3587;SDS011;1808;53.596;9.972;2022-07-25T13:15:24;10.07;;;7.10;;
3587;SDS011;1808;53.596;9.972;2022-07-25T13:17:52;10.23;;;7.38;;
3587;SDS011;1808;53.596;9.972;2022-07-25T13:20:18;10.35;;;6.85;;
3587;SDS011;1808;53.596;9.972;2022-07-25T13:22:45;9.38;;;7.38;;
3587;SDS011;1808;53.596;9.972;2022-07-25T13:25:11;8.98;;;7.47;;
3587;SDS011;1808;53.596;9.972;2022-07-25T13:27:38;15.10;;;6.93;;
3587;SDS011;1808;53.596;9.972;2022-07-25T13:30:05;9.68;;;7.03;;
3587;SDS011;1808;53.596;9.972;2022-07-25T13:32:34;9.57;;;7.75;;
3587;SDS011;1808;53.596;9.972;2022-07-25T13:35:00;9.38;;;7.22;;
3587;SDS011;1808;53.596;9.972;2022-07-25T13:37:27;9.32;;;7.40;;
3587;SDS011;1808;53.596;9.972;2022-07-25T13:39:53;12.20;;;7.53;;
3587;SDS011;1808;53.596;9.972;2022-07-25T13:42:19;8.75;;;7.40;;
3587;SDS011;1808;53.596;9.972;2022-07-25T13:44:46;8.07;;;7.25;;
3587;SDS011;1808;53.596;9.972;2022-07-25T13:47:13;9.18;;;7.65;;
3587;SDS011;1808;53.596;9.972;2022-07-25T13:49:41;13.55;;;7.13;;
3587;SDS011;1808;53.596;9.972;2022-07-25T13:52:07;8.07;;;7.10;;
3587;SDS011;1808;53.596;9.972;2022-07-25T13:54:34;10.98;;;7.43;;
3587;SDS011;1808;53.596;9.972;2022-07-25T13:57:00;9.88;;;7.18;;
3587;SDS011;1808;53.596;9.972;2022-07-25T13:59:27;12.95;;;8.10;;
3587;SDS011;1808;53.596;9.972;2022-07-25T14:01:54;8.88;;;7.80;;
3587;SDS011;1808;53.596;9.972;2022-07-25T14:04:20;9.88;;;7.70;;
3587;SDS011;1808;53.596;9.972;2022-07-25T14:06:48;14.77;;;7.50;;
3587;SDS011;1808;53.596;9.972;2022-07-25T14:09:16;9.02;;;7.65;;
3587;SDS011;1808;53.596;9.972;2022-07-25T14:11:43;11.45;;;7.07;;
3587;SDS011;1808;53.596;9.972;2022-07-25T14:14:10;11.88;;;8.60;;
3587;SDS011;1808;53.596;9.972;2022-07-25T14:16:36;14.77;;;9.32;;
3587;SDS011;1808;53.596;9.972;2022-07-25T14:19:02;16.80;;;9.73;;
3587;SDS011;1808;53.596;9.972;2022-07-25T14:21:29;11.55;;;8.77;;
3587;SDS011;1808;53.596;9.972;2022-07-25T14:23:57;12.02;;;7.93;;
3587;SDS011;1808;53.596;9.972;2022-07-25T14:26:23;13.30;;;9.40;;
3587;SDS011;1808;53.596;9.972;2022-07-25T14:28:52;16.70;;;8.40;;
3587;SDS011;1808;53.596;9.972;2022-07-25T14:31:19;12.98;;;8.82;;
3587;SDS011;1808;53.596;9.972;2022-07-25T14:33:46;12.48;;;8.38;;
3587;SDS011;1808;53.596;9.972;2022-07-25T14:36:12;12.07;;;7.65;;
3587;SDS011;1808;53.596;9.972;2022-07-25T14:38:39;10.48;;;7.55;;
3587;SDS011;1808;53.596;9.972;2022-07-25T14:41:06;11.38;;;6.47;;
3587;SDS011;1808;53.596;9.972;2022-07-25T14:43:33;8.88;;;6.70;;
3587;SDS011;1808;53.596;9.972;2022-07-25T14:45:59;10.65;;;6.15;;
3587;SDS011;1808;53.596;9.972;2022-07-25T14:48:25;11.20;;;6.82;;
3587;SDS011;1808;53.596;9.972;2022-07-25T14:50:52;10.25;;;7.63;;
3587;SDS011;1808;53.596;9.972;2022-07-25T14:53:18;11.00;;;7.38;;
3587;SDS011;1808;53.596;9.972;2022-07-25T14:55:45;9.55;;;6.43;;
3587;SDS011;1808;53.596;9.972;2022-07-25T14:58:12;9.63;;;6.75;;
3587;SDS011;1808;53.596;9.972;2022-07-25T15:00:39;7.15;;;5.25;;
3587;SDS011;1808;53.596;9.972;2022-07-25T15:03:07;8.90;;;4.57;;
3587;SDS011;1808;53.596;9.972;2022-07-25T15:05:34;7.88;;;5.65;;
3587;SDS011;1808;53.596;9.972;2022-07-25T15:08:02;8.77;;;4.72;;
3587;SDS011;1808;53.596;9.972;2022-07-25T15:10:29;7.03;;;5.30;;